sensor_id;sensor_type;location;lat;lon;timestamp;temperature;humidity
26691;DHT22;14307;51.718;8.938;2023-01-24T00:00:50;1.30;99.90
26691;DHT22;14307;51.718;8.938;2023-01-24T00:03:17;1.40;99.90
26691;DHT22;14307;51.718;8.938;2023-01-24T00:05:46;1.20;99.90
26691;DHT22;14307;51.718;8.938;2023-01-24T00:08:15;1.20;99.90
26691;DHT22;14307;51.718;8.938;2023-01-24T00:10:42;1.30;99.90
26691;DHT22;14307;51.718;8.938;2023-01-24T00:13:13;1.30;99.90
26691;DHT22;14307;51.718;8.938;2023-01-24T00:15:40;1.20;99.90
26691;DHT22;14307;51.718;8.938;2023-01-24T00:18:07;1.20;99.90
26691;DHT22;14307;51.718;8.938;2023-01-24T00:20:34;1.30;99.90
26691;DHT22;14307;51.718;8.938;2023-01-24T00:23:00;1.30;99.90
26691;DHT22;14307;51.718;8.938;2023-01-24T00:25:27;1.30;99.90
26691;DHT22;14307;51.718;8.938;2023-01-24T00:27:54;1.20;99.90
26691;DHT22;14307;51.718;8.938;2023-01-24T00:30:20;1.20;99.90
26691;DHT22;14307;51.718;8.938;2023-01-24T00:32:47;1.20;99.90
26691;DHT22;14307;51.718;8.938;2023-01-24T00:35:14;1.20;99.90
26691;DHT22;14307;51.718;8.938;2023-01-24T00:37:40;1.30;99.90
26691;DHT22;14307;51.718;8.938;2023-01-24T00:40:09;1.30;99.90
26691;DHT22;14307;51.718;8.938;2023-01-24T00:42:36;1.20;99.90
26691;DHT22;14307;51.718;8.938;2023-01-24T00:45:04;1.20;99.90
26691;DHT22;14307;51.718;8.938;2023-01-24T00:47:31;1.20;99.90
26691;DHT22;14307;51.718;8.938;2023-01-24T00:49:57;1.20;99.90
26691;DHT22;14307;51.718;8.938;2023-01-24T00:52:24;1.20;99.90
26691;DHT22;14307;51.718;8.938;2023-01-24T00:54:51;1.30;99.90
26691;DHT22;14307;51.718;8.938;2023-01-24T00:57:18;1.20;99.90
26691;DHT22;14307;51.718;8.938;2023-01-24T00:59:44;1.20;99.90
26691;DHT22;14307;51.718;8.938;2023-01-24T01:02:11;1.30;99.90
26691;DHT22;14307;51.718;8.938;2023-01-24T01:04:38;1.40;99.90
26691;DHT22;14307;51.718;8.938;2023-01-24T01:07:05;1.30;99.90
26691;DHT22;14307;51.718;8.938;2023-01-24T01:09:31;1.30;99.90
26691;DHT22;14307;51.718;8.938;2023-01-24T01:11:58;1.30;99.90
26691;DHT22;14307;51.718;8.938;2023-01-24T01:14:25;1.30;99.90
26691;DHT22;14307;51.718;8.938;2023-01-24T01:16:51;1.30;99.90
26691;DHT22;14307;51.718;8.938;2023-01-24T01:19:18;1.30;99.90
26691;DHT22;14307;51.718;8.938;2023-01-24T01:21:45;1.30;99.90
26691;DHT22;14307;51.718;8.938;2023-01-24T01:24:11;1.40;99.90
26691;DHT22;14307;51.718;8.938;2023-01-24T01:26:38;1.40;99.90
26691;DHT22;14307;51.718;8.938;2023-01-24T01:29:05;1.40;99.90
26691;DHT22;14307;51.718;8.938;2023-01-24T01:31:32;1.50;99.90
26691;DHT22;14307;51.718;8.938;2023-01-24T01:34:00;1.50;99.90
26691;DHT22;14307;51.718;8.938;2023-01-24T01:36:27;1.40;99.90
26691;DHT22;14307;51.718;8.938;2023-01-24T01:38:53;1.40;99.90
26691;DHT22;14307;51.718;8.938;2023-01-24T01:41:20;1.30;99.90
26691;DHT22;14307;51.718;8.938;2023-01-24T01:43:48;1.40;99.90
26691;DHT22;14307;51.718;8.938;2023-01-24T01:46:41;1.40;99.90
26691;DHT22;14307;51.718;8.938;2023-01-24T01:49:20;1.30;99.90
26691;DHT22;14307;51.718;8.938;2023-01-24T01:51:50;1.30;99.90
26691;DHT22;14307;51.718;8.938;2023-01-24T01:54:25;1.30;99.90
26691;DHT22;14307;51.718;8.938;2023-01-24T01:57:21;1.30;99.90
26691;DHT22;14307;51.718;8.938;2023-01-24T02:00:11;1.30;99.90
26691;DHT22;14307;51.718;8.938;2023-01-24T02:02:40;1.30;99.90
26691;DHT22;14307;51.718;8.938;2023-01-24T02:05:10;1.30;99.90
26691;DHT22;14307;51.718;8.938;2023-01-24T02:07:57;1.40;99.90
26691;DHT22;14307;51.718;8.938;2023-01-24T02:10:27;1.30;99.90
26691;DHT22;14307;51.718;8.938;2023-01-24T02:13:17;1.30;99.90
26691;DHT22;14307;51.718;8.938;2023-01-24T02:15:45;1.30;99.90
26691;DHT22;14307;51.718;8.938;2023-01-24T02:18:31;1.30;99.90
26691;DHT22;14307;51.718;8.938;2023-01-24T02:20:58;1.30;99.90
26691;DHT22;14307;51.718;8.938;2023-01-24T02:26:26;1.30;99.90
26691;DHT22;14307;51.718;8.938;2023-01-24T02:29:03;1.30;99.90
26691;DHT22;14307;51.718;8.938;2023-01-24T02:34:18;1.30;99.90
26691;DHT22;14307;51.718;8.938;2023-01-24T02:36:45;1.40;99.90
26691;DHT22;14307;51.718;8.938;2023-01-24T02:39:16;1.40;99.90
26691;DHT22;14307;51.718;8.938;2023-01-24T02:41:57;1.30;99.90
26691;DHT22;14307;51.718;8.938;2023-01-24T02:44:43;1.20;99.90
26691;DHT22;14307;51.718;8.938;2023-01-24T02:47:11;1.20;99.90
26691;DHT22;14307;51.718;8.938;2023-01-24T02:49:39;1.30;99.90
26691;DHT22;14307;51.718;8.938;2023-01-24T02:52:07;1.30;99.90
26691;DHT22;14307;51.718;8.938;2023-01-24T02:54:53;1.30;99.90
26691;DHT22;14307;51.718;8.938;2023-01-24T02:57:20;1.30;99.90
26691;DHT22;14307;51.718;8.938;2023-01-24T03:00:07;1.30;99.90
26691;DHT22;14307;51.718;8.938;2023-01-24T03:02:35;1.20;99.90
26691;DHT22;14307;51.718;8.938;2023-01-24T03:05:02;1.20;99.90
26691;DHT22;14307;51.718;8.938;2023-01-24T03:07:28;1.30;99.90
26691;DHT22;14307;51.718;8.938;2023-01-24T03:10:13;1.20;99.90
26691;DHT22;14307;51.718;8.938;2023-01-24T03:12:41;1.20;99.90
26691;DHT22;14307;51.718;8.938;2023-01-24T03:15:27;1.20;99.90
26691;DHT22;14307;51.718;8.938;2023-01-24T03:18:13;1.30;99.90
26691;DHT22;14307;51.718;8.938;2023-01-24T03:20:58;1.30;99.90
26691;DHT22;14307;51.718;8.938;2023-01-24T03:23:44;1.20;99.90
26691;DHT22;14307;51.718;8.938;2023-01-24T03:26:29;1.20;99.90
26691;DHT22;14307;51.718;8.938;2023-01-24T03:29:17;1.20;99.90
26691;DHT22;14307;51.718;8.938;2023-01-24T03:32:02;1.20;99.90
26691;DHT22;14307;51.718;8.938;2023-01-24T03:34:48;1.20;99.90
26691;DHT22;14307;51.718;8.938;2023-01-24T03:37:21;1.30;99.90
26691;DHT22;14307;51.718;8.938;2023-01-24T03:40:11;1.20;99.90
26691;DHT22;14307;51.718;8.938;2023-01-24T03:45:11;1.20;99.90
26691;DHT22;14307;51.718;8.938;2023-01-24T03:47:51;1.10;99.90
26691;DHT22;14307;51.718;8.938;2023-01-24T03:50:25;1.10;99.90
26691;DHT22;14307;51.718;8.938;2023-01-24T03:53:11;1.10;99.90
26691;DHT22;14307;51.718;8.938;2023-01-24T03:55:40;1.10;99.90
26691;DHT22;14307;51.718;8.938;2023-01-24T03:58:08;1.10;99.90
26691;DHT22;14307;51.718;8.938;2023-01-24T04:00:36;1.10;99.90
26691;DHT22;14307;51.718;8.938;2023-01-24T04:03:12;1.10;99.90
26691;DHT22;14307;51.718;8.938;2023-01-24T04:05:42;1.10;99.90
26691;DHT22;14307;51.718;8.938;2023-01-24T04:08:10;1.10;99.90
26691;DHT22;14307;51.718;8.938;2023-01-24T04:10:37;1.20;99.90
26691;DHT22;14307;51.718;8.938;2023-01-24T04:13:08;1.10;99.90
26691;DHT22;14307;51.718;8.938;2023-01-24T04:15:35;1.10;99.90
26691;DHT22;14307;51.718;8.938;2023-01-24T04:18:22;1.10;99.90
26691;DHT22;14307;51.718;8.938;2023-01-24T04:20:49;1.10;99.90
26691;DHT22;14307;51.718;8.938;2023-01-24T04:23:17;1.00;99.90
26691;DHT22;14307;51.718;8.938;2023-01-24T04:25:49;1.10;99.90
26691;DHT22;14307;51.718;8.938;2023-01-24T04:28:21;1.20;99.90
26691;DHT22;14307;51.718;8.938;2023-01-24T04:30:56;1.20;99.90
26691;DHT22;14307;51.718;8.938;2023-01-24T04:33:38;1.20;99.90
26691;DHT22;14307;51.718;8.938;2023-01-24T04:36:06;1.10;99.90
26691;DHT22;14307;51.718;8.938;2023-01-24T04:38:34;1.10;99.90
26691;DHT22;14307;51.718;8.938;2023-01-24T04:41:21;1.10;99.90
26691;DHT22;14307;51.718;8.938;2023-01-24T04:43:49;1.00;99.90
26691;DHT22;14307;51.718;8.938;2023-01-24T04:46:15;1.00;99.90
26691;DHT22;14307;51.718;8.938;2023-01-24T04:48:52;1.10;99.90
26691;DHT22;14307;51.718;8.938;2023-01-24T04:51:20;1.00;99.90
26691;DHT22;14307;51.718;8.938;2023-01-24T04:53:47;1.00;99.90
26691;DHT22;14307;51.718;8.938;2023-01-24T04:56:18;1.00;99.90
26691;DHT22;14307;51.718;8.938;2023-01-24T04:58:45;0.90;99.90
26691;DHT22;14307;51.718;8.938;2023-01-24T05:01:13;0.90;99.90
26691;DHT22;14307;51.718;8.938;2023-01-24T05:03:51;0.90;99.90
26691;DHT22;14307;51.718;8.938;2023-01-24T05:06:26;0.90;99.90
26691;DHT22;14307;51.718;8.938;2023-01-24T05:08:54;1.00;99.90
26691;DHT22;14307;51.718;8.938;2023-01-24T05:11:26;1.00;99.90
26691;DHT22;14307;51.718;8.938;2023-01-24T05:13:57;0.90;99.90
26691;DHT22;14307;51.718;8.938;2023-01-24T05:16:23;0.90;99.90
26691;DHT22;14307;51.718;8.938;2023-01-24T05:18:50;0.90;99.90
26691;DHT22;14307;51.718;8.938;2023-01-24T05:21:18;0.90;99.90
26691;DHT22;14307;51.718;8.938;2023-01-24T05:23:50;0.90;99.90
26691;DHT22;14307;51.718;8.938;2023-01-24T05:26:20;0.90;99.90
26691;DHT22;14307;51.718;8.938;2023-01-24T05:28:49;0.90;99.90
26691;DHT22;14307;51.718;8.938;2023-01-24T05:31:18;1.00;99.90
26691;DHT22;14307;51.718;8.938;2023-01-24T05:33:46;0.90;99.90
26691;DHT22;14307;51.718;8.938;2023-01-24T05:36:16;0.90;99.90
26691;DHT22;14307;51.718;8.938;2023-01-24T05:38:45;0.80;99.90
26691;DHT22;14307;51.718;8.938;2023-01-24T05:41:17;0.90;99.90
26691;DHT22;14307;51.718;8.938;2023-01-24T05:43:45;0.90;99.90
26691;DHT22;14307;51.718;8.938;2023-01-24T05:46:15;0.90;99.90
26691;DHT22;14307;51.718;8.938;2023-01-24T05:48:49;1.00;99.90
26691;DHT22;14307;51.718;8.938;2023-01-24T05:51:18;1.00;99.90
26691;DHT22;14307;51.718;8.938;2023-01-24T05:53:47;1.00;99.90
26691;DHT22;14307;51.718;8.938;2023-01-24T05:56:24;1.00;99.90
26691;DHT22;14307;51.718;8.938;2023-01-24T05:58:51;1.00;99.90
26691;DHT22;14307;51.718;8.938;2023-01-24T06:01:20;0.90;99.90
26691;DHT22;14307;51.718;8.938;2023-01-24T06:03:51;0.90;99.90
26691;DHT22;14307;51.718;8.938;2023-01-24T06:06:23;0.80;99.90
26691;DHT22;14307;51.718;8.938;2023-01-24T06:08:51;0.80;99.90
26691;DHT22;14307;51.718;8.938;2023-01-24T06:11:22;0.80;99.90
26691;DHT22;14307;51.718;8.938;2023-01-24T06:13:59;0.80;99.90
26691;DHT22;14307;51.718;8.938;2023-01-24T06:16:27;0.80;99.90
26691;DHT22;14307;51.718;8.938;2023-01-24T06:18:54;0.90;99.90
26691;DHT22;14307;51.718;8.938;2023-01-24T06:24:01;0.90;99.90
26691;DHT22;14307;51.718;8.938;2023-01-24T06:26:40;0.90;99.90
26691;DHT22;14307;51.718;8.938;2023-01-24T06:29:09;0.80;99.90
26691;DHT22;14307;51.718;8.938;2023-01-24T06:39:39;0.90;99.90
26691;DHT22;14307;51.718;8.938;2023-01-24T06:42:07;0.90;99.90
26691;DHT22;14307;51.718;8.938;2023-01-24T06:44:34;0.90;99.90
26691;DHT22;14307;51.718;8.938;2023-01-24T06:47:01;0.80;99.90
26691;DHT22;14307;51.718;8.938;2023-01-24T06:49:27;0.80;99.90
26691;DHT22;14307;51.718;8.938;2023-01-24T06:51:54;0.70;99.90
26691;DHT22;14307;51.718;8.938;2023-01-24T06:54:21;0.70;99.90
26691;DHT22;14307;51.718;8.938;2023-01-24T06:56:47;0.70;99.90
26691;DHT22;14307;51.718;8.938;2023-01-24T06:59:14;0.70;99.90
26691;DHT22;14307;51.718;8.938;2023-01-24T07:01:41;0.80;99.90
26691;DHT22;14307;51.718;8.938;2023-01-24T07:04:08;0.70;99.90
26691;DHT22;14307;51.718;8.938;2023-01-24T07:06:34;0.80;99.90
26691;DHT22;14307;51.718;8.938;2023-01-24T07:09:01;0.70;99.90
26691;DHT22;14307;51.718;8.938;2023-01-24T07:11:28;0.70;99.90
26691;DHT22;14307;51.718;8.938;2023-01-24T07:13:55;0.80;99.90
26691;DHT22;14307;51.718;8.938;2023-01-24T07:16:22;0.80;99.90
26691;DHT22;14307;51.718;8.938;2023-01-24T07:18:49;0.80;99.90
26691;DHT22;14307;51.718;8.938;2023-01-24T07:21:16;0.70;99.90
26691;DHT22;14307;51.718;8.938;2023-01-24T07:23:48;0.70;99.90
26691;DHT22;14307;51.718;8.938;2023-01-24T07:26:15;0.70;99.90
26691;DHT22;14307;51.718;8.938;2023-01-24T07:28:42;0.80;99.90
26691;DHT22;14307;51.718;8.938;2023-01-24T07:31:12;0.80;99.90
26691;DHT22;14307;51.718;8.938;2023-01-24T07:33:39;0.80;99.90
26691;DHT22;14307;51.718;8.938;2023-01-24T07:36:13;0.90;99.90
26691;DHT22;14307;51.718;8.938;2023-01-24T07:38:40;0.80;99.90
26691;DHT22;14307;51.718;8.938;2023-01-24T07:41:08;0.80;99.90
26691;DHT22;14307;51.718;8.938;2023-01-24T07:43:35;0.90;99.90
26691;DHT22;14307;51.718;8.938;2023-01-24T07:46:02;0.90;99.90
26691;DHT22;14307;51.718;8.938;2023-01-24T07:48:30;0.90;99.90
26691;DHT22;14307;51.718;8.938;2023-01-24T07:51:00;0.90;99.90
26691;DHT22;14307;51.718;8.938;2023-01-24T07:53:27;0.80;99.90
26691;DHT22;14307;51.718;8.938;2023-01-24T07:55:54;0.80;99.90
26691;DHT22;14307;51.718;8.938;2023-01-24T07:58:28;0.80;99.90
26691;DHT22;14307;51.718;8.938;2023-01-24T08:00:55;0.90;99.90
26691;DHT22;14307;51.718;8.938;2023-01-24T08:03:22;0.90;99.90
26691;DHT22;14307;51.718;8.938;2023-01-24T08:05:48;0.80;99.90
26691;DHT22;14307;51.718;8.938;2023-01-24T08:08:16;0.80;99.90
26691;DHT22;14307;51.718;8.938;2023-01-24T08:10:42;0.80;99.90
26691;DHT22;14307;51.718;8.938;2023-01-24T08:13:09;0.80;99.90
26691;DHT22;14307;51.718;8.938;2023-01-24T08:15:36;0.80;99.90
26691;DHT22;14307;51.718;8.938;2023-01-24T08:18:02;0.70;99.90
26691;DHT22;14307;51.718;8.938;2023-01-24T08:20:29;0.80;99.90
26691;DHT22;14307;51.718;8.938;2023-01-24T08:22:56;0.80;99.90
26691;DHT22;14307;51.718;8.938;2023-01-24T08:25:25;0.90;99.90
26691;DHT22;14307;51.718;8.938;2023-01-24T08:27:52;0.90;99.90
26691;DHT22;14307;51.718;8.938;2023-01-24T08:30:19;0.90;99.90
26691;DHT22;14307;51.718;8.938;2023-01-24T08:32:46;0.80;99.90
26691;DHT22;14307;51.718;8.938;2023-01-24T08:35:13;0.90;99.90
26691;DHT22;14307;51.718;8.938;2023-01-24T08:37:40;1.00;99.90
26691;DHT22;14307;51.718;8.938;2023-01-24T08:40:07;1.00;99.90
26691;DHT22;14307;51.718;8.938;2023-01-24T08:42:35;1.10;99.90
26691;DHT22;14307;51.718;8.938;2023-01-24T08:45:02;1.10;99.90
26691;DHT22;14307;51.718;8.938;2023-01-24T08:47:29;1.10;99.90
26691;DHT22;14307;51.718;8.938;2023-01-24T08:49:55;1.20;99.90
26691;DHT22;14307;51.718;8.938;2023-01-24T08:52:22;1.10;99.90
26691;DHT22;14307;51.718;8.938;2023-01-24T08:54:49;0.90;99.90
26691;DHT22;14307;51.718;8.938;2023-01-24T08:57:16;0.90;99.90
26691;DHT22;14307;51.718;8.938;2023-01-24T08:59:43;0.90;99.90
26691;DHT22;14307;51.718;8.938;2023-01-24T09:02:13;0.80;99.90
26691;DHT22;14307;51.718;8.938;2023-01-24T09:04:40;0.80;99.90
26691;DHT22;14307;51.718;8.938;2023-01-24T09:07:10;0.80;99.90
26691;DHT22;14307;51.718;8.938;2023-01-24T09:09:37;0.90;99.90
26691;DHT22;14307;51.718;8.938;2023-01-24T09:12:06;1.00;99.90
26691;DHT22;14307;51.718;8.938;2023-01-24T09:14:32;0.90;99.90
26691;DHT22;14307;51.718;8.938;2023-01-24T09:16:59;0.80;99.90
26691;DHT22;14307;51.718;8.938;2023-01-24T09:19:26;0.80;99.90
26691;DHT22;14307;51.718;8.938;2023-01-24T09:21:53;0.70;99.90
26691;DHT22;14307;51.718;8.938;2023-01-24T09:24:24;0.80;99.90
26691;DHT22;14307;51.718;8.938;2023-01-24T09:26:51;0.90;99.90
26691;DHT22;14307;51.718;8.938;2023-01-24T09:29:17;0.90;99.90
26691;DHT22;14307;51.718;8.938;2023-01-24T09:31:45;1.10;99.90
26691;DHT22;14307;51.718;8.938;2023-01-24T09:34:12;1.20;99.90
26691;DHT22;14307;51.718;8.938;2023-01-24T09:36:39;1.10;99.90
26691;DHT22;14307;51.718;8.938;2023-01-24T09:39:06;1.10;99.90
26691;DHT22;14307;51.718;8.938;2023-01-24T09:47:41;1.00;99.90
26691;DHT22;14307;51.718;8.938;2023-01-24T09:50:18;1.00;99.90
26691;DHT22;14307;51.718;8.938;2023-01-24T09:52:51;1.10;99.90
26691;DHT22;14307;51.718;8.938;2023-01-24T09:55:34;0.80;99.90
26691;DHT22;14307;51.718;8.938;2023-01-24T09:58:32;0.80;99.90
26691;DHT22;14307;51.718;8.938;2023-01-24T10:01:05;0.80;99.90
26691;DHT22;14307;51.718;8.938;2023-01-24T10:03:35;0.80;99.90
26691;DHT22;14307;51.718;8.938;2023-01-24T10:06:13;0.90;99.90
26691;DHT22;14307;51.718;8.938;2023-01-24T10:20:07;0.90;99.90
26691;DHT22;14307;51.718;8.938;2023-01-24T10:22:59;1.10;99.90
26691;DHT22;14307;51.718;8.938;2023-01-24T10:25:45;1.20;99.90
26691;DHT22;14307;51.718;8.938;2023-01-24T10:28:22;1.20;99.90
26691;DHT22;14307;51.718;8.938;2023-01-24T10:30:52;1.00;99.90
26691;DHT22;14307;51.718;8.938;2023-01-24T10:33:20;1.00;99.90
26691;DHT22;14307;51.718;8.938;2023-01-24T10:36:00;0.90;99.90
26691;DHT22;14307;51.718;8.938;2023-01-24T10:38:27;0.90;99.90
26691;DHT22;14307;51.718;8.938;2023-01-24T10:40:58;1.00;99.90
26691;DHT22;14307;51.718;8.938;2023-01-24T10:43:31;1.10;99.90
26691;DHT22;14307;51.718;8.938;2023-01-24T10:46:33;1.10;99.90
26691;DHT22;14307;51.718;8.938;2023-01-24T10:49:08;1.10;99.90
26691;DHT22;14307;51.718;8.938;2023-01-24T10:51:38;1.20;99.90
26691;DHT22;14307;51.718;8.938;2023-01-24T10:54:19;1.20;99.90
26691;DHT22;14307;51.718;8.938;2023-01-24T10:56:47;1.20;99.90
26691;DHT22;14307;51.718;8.938;2023-01-24T10:59:14;1.00;99.90
26691;DHT22;14307;51.718;8.938;2023-01-24T11:01:47;1.00;99.90
26691;DHT22;14307;51.718;8.938;2023-01-24T11:04:26;0.90;99.90
26691;DHT22;14307;51.718;8.938;2023-01-24T11:06:53;0.80;99.90
26691;DHT22;14307;51.718;8.938;2023-01-24T11:09:22;0.80;99.90
26691;DHT22;14307;51.718;8.938;2023-01-24T11:11:55;0.80;99.90
26691;DHT22;14307;51.718;8.938;2023-01-24T11:14:27;1.00;99.90
26691;DHT22;14307;51.718;8.938;2023-01-24T11:16:57;1.00;99.90
26691;DHT22;14307;51.718;8.938;2023-01-24T11:19:32;1.00;99.90
26691;DHT22;14307;51.718;8.938;2023-01-24T11:22:23;1.00;99.90
26691;DHT22;14307;51.718;8.938;2023-01-24T11:24:48;0.90;99.90
26691;DHT22;14307;51.718;8.938;2023-01-24T11:27:17;0.80;99.90
26691;DHT22;14307;51.718;8.938;2023-01-24T11:29:45;0.80;99.90
26691;DHT22;14307;51.718;8.938;2023-01-24T11:35:13;0.90;99.90
26691;DHT22;14307;51.718;8.938;2023-01-24T11:40:39;0.90;99.90
26691;DHT22;14307;51.718;8.938;2023-01-24T11:46:36;0.90;99.90
26691;DHT22;14307;51.718;8.938;2023-01-24T11:49:16;0.90;99.90
26691;DHT22;14307;51.718;8.938;2023-01-24T11:54:43;0.90;99.90
26691;DHT22;14307;51.718;8.938;2023-01-24T11:57:34;1.00;99.90
26691;DHT22;14307;51.718;8.938;2023-01-24T12:21:06;1.10;99.90
26691;DHT22;14307;51.718;8.938;2023-01-24T12:23:52;1.20;99.90
26691;DHT22;14307;51.718;8.938;2023-01-24T12:26:39;1.20;99.90
26691;DHT22;14307;51.718;8.938;2023-01-24T12:40:20;1.20;99.90
26691;DHT22;14307;51.718;8.938;2023-01-24T12:43:06;1.30;99.90
26691;DHT22;14307;51.718;8.938;2023-01-24T12:48:47;1.30;99.90
26691;DHT22;14307;51.718;8.938;2023-01-24T12:51:31;1.10;99.90
26691;DHT22;14307;51.718;8.938;2023-01-24T12:54:09;1.10;99.90
26691;DHT22;14307;51.718;8.938;2023-01-24T12:57:03;0.90;99.90
26691;DHT22;14307;51.718;8.938;2023-01-24T12:59:31;0.80;99.90
26691;DHT22;14307;51.718;8.938;2023-01-24T13:10:37;0.80;99.90
26691;DHT22;14307;51.718;8.938;2023-01-24T13:13:16;0.90;99.90
26691;DHT22;14307;51.718;8.938;2023-01-24T13:16:03;0.80;99.90
26691;DHT22;14307;51.718;8.938;2023-01-24T13:19:05;0.80;99.90
26691;DHT22;14307;51.718;8.938;2023-01-24T13:24:51;0.70;99.90
26691;DHT22;14307;51.718;8.938;2023-01-24T13:32:51;1.00;99.90
26691;DHT22;14307;51.718;8.938;2023-01-24T13:35:24;0.90;99.90
26691;DHT22;14307;51.718;8.938;2023-01-24T13:37:54;1.00;99.90
26691;DHT22;14307;51.718;8.938;2023-01-24T13:40:26;0.90;99.90
26691;DHT22;14307;51.718;8.938;2023-01-24T13:42:57;0.90;99.90
26691;DHT22;14307;51.718;8.938;2023-01-24T13:51:31;0.90;99.90
26691;DHT22;14307;51.718;8.938;2023-01-24T13:54:01;1.00;99.90
26691;DHT22;14307;51.718;8.938;2023-01-24T13:56:29;1.10;99.90
26691;DHT22;14307;51.718;8.938;2023-01-24T13:58:56;0.90;99.90
26691;DHT22;14307;51.718;8.938;2023-01-24T14:01:24;0.80;99.90
26691;DHT22;14307;51.718;8.938;2023-01-24T14:04:02;0.90;99.90
26691;DHT22;14307;51.718;8.938;2023-01-24T14:06:46;0.80;99.90
26691;DHT22;14307;51.718;8.938;2023-01-24T14:09:25;0.90;99.90
26691;DHT22;14307;51.718;8.938;2023-01-24T14:12:00;0.80;99.90
26691;DHT22;14307;51.718;8.938;2023-01-24T14:14:35;0.50;99.90
26691;DHT22;14307;51.718;8.938;2023-01-24T14:17:22;0.70;99.90
26691;DHT22;14307;51.718;8.938;2023-01-24T14:19:52;0.60;99.90
26691;DHT22;14307;51.718;8.938;2023-01-24T14:22:23;0.60;99.90
26691;DHT22;14307;51.718;8.938;2023-01-24T14:25:01;0.50;99.90
26691;DHT22;14307;51.718;8.938;2023-01-24T14:27:48;0.50;99.90
26691;DHT22;14307;51.718;8.938;2023-01-24T14:32:46;0.40;99.90
26691;DHT22;14307;51.718;8.938;2023-01-24T14:37:44;0.40;99.90
26691;DHT22;14307;51.718;8.938;2023-01-24T14:40:21;0.40;99.90
26691;DHT22;14307;51.718;8.938;2023-01-24T14:42:50;0.50;99.90
26691;DHT22;14307;51.718;8.938;2023-01-24T14:45:23;0.50;99.90
26691;DHT22;14307;51.718;8.938;2023-01-24T14:47:51;0.50;99.90
26691;DHT22;14307;51.718;8.938;2023-01-24T14:50:22;0.50;99.90
26691;DHT22;14307;51.718;8.938;2023-01-24T14:52:50;0.50;99.90
26691;DHT22;14307;51.718;8.938;2023-01-24T14:57:54;0.50;99.90
26691;DHT22;14307;51.718;8.938;2023-01-24T15:00:22;0.50;99.90
26691;DHT22;14307;51.718;8.938;2023-01-24T15:02:55;0.40;99.90
26691;DHT22;14307;51.718;8.938;2023-01-24T15:05:32;0.40;99.90
26691;DHT22;14307;51.718;8.938;2023-01-24T15:08:01;0.40;99.90
26691;DHT22;14307;51.718;8.938;2023-01-24T15:10:31;0.30;99.90
26691;DHT22;14307;51.718;8.938;2023-01-24T15:13:03;0.20;99.90
26691;DHT22;14307;51.718;8.938;2023-01-24T15:15:30;0.20;99.90
26691;DHT22;14307;51.718;8.938;2023-01-24T15:18:25;0.30;99.90
26691;DHT22;14307;51.718;8.938;2023-01-24T15:20:53;0.30;99.90
26691;DHT22;14307;51.718;8.938;2023-01-24T15:23:30;0.40;99.90
26691;DHT22;14307;51.718;8.938;2023-01-24T15:25:57;0.30;99.90
26691;DHT22;14307;51.718;8.938;2023-01-24T15:28:42;0.20;99.90
26691;DHT22;14307;51.718;8.938;2023-01-24T15:31:19;0.20;99.90
26691;DHT22;14307;51.718;8.938;2023-01-24T15:33:53;0.30;99.90
26691;DHT22;14307;51.718;8.938;2023-01-24T15:38:55;0.30;99.90
26691;DHT22;14307;51.718;8.938;2023-01-24T15:41:27;0.30;99.90
26691;DHT22;14307;51.718;8.938;2023-01-24T15:44:15;0.20;99.90
26691;DHT22;14307;51.718;8.938;2023-01-24T15:46:44;0.30;99.90
26691;DHT22;14307;51.718;8.938;2023-01-24T15:54:35;0.30;99.90
26691;DHT22;14307;51.718;8.938;2023-01-24T15:57:20;0.30;99.90
26691;DHT22;14307;51.718;8.938;2023-01-24T15:59:53;0.20;99.90
26691;DHT22;14307;51.718;8.938;2023-01-24T16:02:20;0.30;99.90
26691;DHT22;14307;51.718;8.938;2023-01-24T16:04:47;0.30;99.90
26691;DHT22;14307;51.718;8.938;2023-01-24T16:07:17;0.30;99.90
26691;DHT22;14307;51.718;8.938;2023-01-24T16:09:48;0.30;99.90
26691;DHT22;14307;51.718;8.938;2023-01-24T16:12:17;0.20;99.90
26691;DHT22;14307;51.718;8.938;2023-01-24T16:14:50;0.10;99.90
26691;DHT22;14307;51.718;8.938;2023-01-24T16:17:33;0.10;99.90
26691;DHT22;14307;51.718;8.938;2023-01-24T16:20:00;0.00;99.90
26691;DHT22;14307;51.718;8.938;2023-01-24T16:22:27;-0.10;99.90
26691;DHT22;14307;51.718;8.938;2023-01-24T16:24:55;0.00;99.90
26691;DHT22;14307;51.718;8.938;2023-01-24T16:27:21;0.10;99.90
26691;DHT22;14307;51.718;8.938;2023-01-24T16:29:48;0.10;99.90
26691;DHT22;14307;51.718;8.938;2023-01-24T16:32:21;0.00;99.90
26691;DHT22;14307;51.718;8.938;2023-01-24T16:34:49;0.00;99.90
26691;DHT22;14307;51.718;8.938;2023-01-24T16:37:16;0.00;99.90
26691;DHT22;14307;51.718;8.938;2023-01-24T16:39:47;0.00;99.90
26691;DHT22;14307;51.718;8.938;2023-01-24T16:42:17;0.10;99.90
26691;DHT22;14307;51.718;8.938;2023-01-24T16:44:55;0.20;99.90
26691;DHT22;14307;51.718;8.938;2023-01-24T16:47:27;0.20;99.90
26691;DHT22;14307;51.718;8.938;2023-01-24T16:49:55;0.10;99.90
26691;DHT22;14307;51.718;8.938;2023-01-24T16:52:24;0.10;99.90
26691;DHT22;14307;51.718;8.938;2023-01-24T16:54:52;0.10;99.90
26691;DHT22;14307;51.718;8.938;2023-01-24T16:57:19;0.00;99.90
26691;DHT22;14307;51.718;8.938;2023-01-24T16:59:46;0.00;99.90
26691;DHT22;14307;51.718;8.938;2023-01-24T17:02:13;0.00;99.90
26691;DHT22;14307;51.718;8.938;2023-01-24T17:04:40;0.00;99.90
26691;DHT22;14307;51.718;8.938;2023-01-24T17:07:07;0.00;99.90
26691;DHT22;14307;51.718;8.938;2023-01-24T17:09:34;0.10;99.90
26691;DHT22;14307;51.718;8.938;2023-01-24T17:12:01;0.00;99.90
26691;DHT22;14307;51.718;8.938;2023-01-24T17:14:40;0.00;99.90
26691;DHT22;14307;51.718;8.938;2023-01-24T17:17:07;0.00;99.90
26691;DHT22;14307;51.718;8.938;2023-01-24T17:19:35;0.10;99.90
26691;DHT22;14307;51.718;8.938;2023-01-24T17:22:03;0.10;99.90
26691;DHT22;14307;51.718;8.938;2023-01-24T17:24:30;0.10;99.90
26691;DHT22;14307;51.718;8.938;2023-01-24T17:26:57;0.10;99.90
26691;DHT22;14307;51.718;8.938;2023-01-24T17:29:24;0.10;99.90
26691;DHT22;14307;51.718;8.938;2023-01-24T17:31:54;0.10;99.90
26691;DHT22;14307;51.718;8.938;2023-01-24T17:34:24;0.10;99.90
26691;DHT22;14307;51.718;8.938;2023-01-24T17:36:51;0.00;99.90
26691;DHT22;14307;51.718;8.938;2023-01-24T17:39:20;0.00;99.90
26691;DHT22;14307;51.718;8.938;2023-01-24T17:41:47;0.10;99.90
26691;DHT22;14307;51.718;8.938;2023-01-24T17:44:14;0.10;99.90
26691;DHT22;14307;51.718;8.938;2023-01-24T17:46:42;0.10;99.90
26691;DHT22;14307;51.718;8.938;2023-01-24T17:49:09;0.10;99.90
26691;DHT22;14307;51.718;8.938;2023-01-24T17:51:36;0.10;99.90
26691;DHT22;14307;51.718;8.938;2023-01-24T17:54:06;0.00;99.90
26691;DHT22;14307;51.718;8.938;2023-01-24T17:56:32;0.00;99.90
26691;DHT22;14307;51.718;8.938;2023-01-24T17:58:59;0.00;99.90
26691;DHT22;14307;51.718;8.938;2023-01-24T18:01:26;0.00;99.90
26691;DHT22;14307;51.718;8.938;2023-01-24T18:03:53;0.10;99.90
26691;DHT22;14307;51.718;8.938;2023-01-24T18:06:20;0.10;99.90
26691;DHT22;14307;51.718;8.938;2023-01-24T18:08:47;0.20;99.90
26691;DHT22;14307;51.718;8.938;2023-01-24T18:11:16;0.10;99.90
26691;DHT22;14307;51.718;8.938;2023-01-24T18:13:46;0.10;99.90